createdAt,value
2023-04-18T00:01:15.012Z,2.90
2023-04-18T00:04:18.512Z,2.83
2023-04-18T00:07:21.697Z,3.10
2023-04-18T00:10:24.238Z,3.00
2023-04-18T00:13:28.378Z,3.12
2023-04-18T00:16:33.034Z,3.25
2023-04-18T00:19:36.569Z,3.00
2023-04-18T00:22:46.458Z,3.17
2023-04-18T00:25:48.946Z,3.10
2023-04-18T00:28:51.418Z,3.22
2023-04-18T00:31:53.633Z,3.12
2023-04-18T00:34:56.727Z,3.12
2023-04-18T00:37:58.846Z,3.40
2023-04-18T00:41:01.292Z,3.83
2023-04-18T00:44:03.535Z,2.95
2023-04-18T00:47:06.009Z,3.85
2023-04-18T00:50:09.952Z,3.30
2023-04-18T00:53:13.474Z,3.42
2023-04-18T00:56:16.152Z,3.40
2023-04-18T00:59:18.793Z,3.03
2023-04-18T01:02:21.324Z,3.45
2023-04-18T01:05:23.924Z,3.50
2023-04-18T01:08:27.762Z,3.62
2023-04-18T01:11:32.735Z,3.35
2023-04-18T01:14:34.936Z,3.40
2023-04-18T01:17:39.678Z,4.03
2023-04-18T01:20:46.560Z,3.65
2023-04-18T01:23:49.166Z,3.95
2023-04-18T01:26:51.595Z,3.70
2023-04-18T01:29:54.159Z,3.85
2023-04-18T01:32:56.388Z,3.67
2023-04-18T01:36:01.541Z,3.58
2023-04-18T01:39:06.440Z,3.92
2023-04-18T01:42:08.840Z,4.05
2023-04-18T01:45:13.251Z,3.70
2023-04-18T01:48:15.955Z,4.37
2023-04-18T01:51:18.140Z,3.50
2023-04-18T01:54:20.573Z,3.80
2023-04-18T01:57:22.848Z,3.78
2023-04-18T02:00:25.498Z,3.85
2023-04-18T02:03:27.658Z,3.85
2023-04-18T02:06:30.795Z,3.95
2023-04-18T02:09:34.543Z,3.67
2023-04-18T02:12:36.972Z,4.10
2023-04-18T02:15:39.151Z,4.28
2023-04-18T02:18:43.643Z,4.03
2023-04-18T02:21:45.906Z,4.03
2023-04-18T02:24:49.917Z,4.60
2023-04-18T02:27:52.172Z,4.80
2023-04-18T02:30:54.587Z,4.40
2023-04-18T02:33:56.748Z,4.43
2023-04-18T02:36:59.285Z,4.25
2023-04-18T02:40:01.480Z,4.28
2023-04-18T02:43:04.673Z,4.25
2023-04-18T02:46:07.297Z,4.40
2023-04-18T02:49:10.327Z,4.60
2023-04-18T02:52:12.532Z,4.57
2023-04-18T02:55:15.192Z,5.10
2023-04-18T02:58:17.996Z,5.45
2023-04-18T03:01:21.735Z,5.03
2023-04-18T03:04:24.616Z,5.37
2023-04-18T03:07:27.655Z,4.90
2023-04-18T03:10:30.685Z,5.07
2023-04-18T03:13:33.895Z,5.37
2023-04-18T03:16:36.687Z,5.90
2023-04-18T03:19:39.662Z,5.87
2023-04-18T03:22:41.999Z,5.55
2023-04-18T03:25:45.117Z,5.68
2023-04-18T03:28:47.339Z,6.10
2023-04-18T03:31:51.018Z,5.97
2023-04-18T03:34:53.266Z,6.32
2023-04-18T03:37:56.970Z,6.50
2023-04-18T03:40:59.536Z,5.35
2023-04-18T03:44:03.011Z,6.03
2023-04-18T03:47:08.042Z,5.68
2023-04-18T03:50:11.148Z,5.87
2023-04-18T03:53:14.429Z,6.12
2023-04-18T03:56:17.171Z,6.12
2023-04-18T03:59:20.164Z,6.45
2023-04-18T04:02:23.710Z,6.50
2023-04-18T04:05:26.448Z,6.25
2023-04-18T04:08:28.671Z,5.60
2023-04-18T04:11:31.576Z,6.43
2023-04-18T04:14:33.982Z,6.25
2023-04-18T04:17:36.937Z,6.53
2023-04-18T04:20:39.163Z,6.00
2023-04-18T04:23:42.893Z,7.18
2023-04-18T04:26:46.781Z,6.20
2023-04-18T04:29:49.474Z,6.75
2023-04-18T04:32:53.589Z,6.78
2023-04-18T04:35:56.623Z,6.22
2023-04-18T04:39:04.579Z,6.10
2023-04-18T04:42:09.606Z,6.43
2023-04-18T04:45:13.796Z,5.90
2023-04-18T04:48:16.712Z,6.40
2023-04-18T04:51:18.897Z,6.20
2023-04-18T04:54:21.462Z,6.07
2023-04-18T04:57:23.917Z,6.35
2023-04-18T05:00:26.945Z,6.47
2023-04-18T05:03:29.190Z,6.07
2023-04-18T05:06:32.853Z,7.25
2023-04-18T05:09:35.092Z,6.68
2023-04-18T05:12:37.523Z,6.75
2023-04-18T05:15:40.008Z,5.93
2023-04-18T05:18:42.731Z,6.45
2023-04-18T05:21:44.869Z,6.43
2023-04-18T05:24:47.283Z,6.40
2023-04-18T05:27:50.531Z,6.80
2023-04-18T05:30:53.325Z,7.20
2023-04-18T05:33:55.794Z,6.82
2023-04-18T05:36:58.456Z,6.70
2023-04-18T05:40:01.119Z,7.30
2023-04-18T05:43:03.729Z,8.00
2023-04-18T05:46:07.000Z,6.78
2023-04-18T05:49:10.309Z,7.10
2023-04-18T05:52:12.643Z,7.10
2023-04-18T05:55:15.380Z,7.05
2023-04-18T05:58:17.548Z,6.30
2023-04-18T06:01:20.014Z,6.78
2023-04-18T06:04:22.684Z,6.22
2023-04-18T06:07:25.553Z,6.78
2023-04-18T06:10:28.061Z,6.00
2023-04-18T06:13:30.392Z,5.97
2023-04-18T06:16:33.066Z,6.00
2023-04-18T06:19:35.631Z,6.60
2023-04-18T06:22:38.096Z,5.30
2023-04-18T06:25:43.511Z,5.70
2023-04-18T06:28:46.371Z,6.07
2023-04-18T06:31:50.408Z,5.62
2023-04-18T06:34:53.101Z,5.43
2023-04-18T06:37:55.883Z,5.53
2023-04-18T06:40:58.379Z,5.37
2023-04-18T06:44:04.051Z,4.85
2023-04-18T06:47:07.355Z,5.25
2023-04-18T06:50:10.884Z,4.62
2023-04-18T06:53:14.439Z,4.80
2023-04-18T06:56:16.552Z,4.45
2023-04-18T06:59:21.338Z,4.93
2023-04-18T07:02:23.754Z,4.75
2023-04-18T07:05:26.307Z,4.57
2023-04-18T07:08:28.754Z,3.90
2023-04-18T07:11:31.337Z,3.70
2023-04-18T07:14:34.321Z,3.85
2023-04-18T07:17:37.083Z,4.05
2023-04-18T07:20:40.237Z,4.18
2023-04-18T07:23:42.852Z,4.57
2023-04-18T07:26:45.647Z,3.87
2023-04-18T07:29:48.000Z,4.18
2023-04-18T07:32:50.457Z,4.22
2023-04-18T07:35:53.055Z,4.10
2023-04-18T07:38:55.269Z,3.70
2023-04-18T07:41:57.908Z,4.20
2023-04-18T07:45:00.053Z,3.90
2023-04-18T07:48:02.616Z,5.68
2023-04-18T07:51:04.984Z,4.22
2023-04-18T07:54:07.494Z,4.78
2023-04-18T07:57:10.802Z,3.75
2023-04-18T08:00:15.754Z,3.22
2023-04-18T08:03:18.438Z,3.45
2023-04-18T08:06:21.471Z,3.30
2023-04-18T08:09:25.010Z,3.30
2023-04-18T08:12:27.250Z,3.15
2023-04-18T08:15:32.267Z,3.33
2023-04-18T08:18:35.746Z,3.30
2023-04-18T08:21:39.233Z,3.03
2023-04-18T08:24:46.424Z,3.00
2023-04-18T08:27:53.730Z,2.80
2023-04-18T08:30:56.607Z,3.08
2023-04-18T08:33:59.138Z,2.50
2023-04-18T08:37:01.392Z,2.75
2023-04-18T08:40:05.523Z,3.05
2023-04-18T08:43:12.549Z,2.30
2023-04-18T08:46:15.131Z,2.70
2023-04-18T08:49:17.786Z,2.62
2023-04-18T08:52:21.592Z,2.65
2023-04-18T08:55:23.876Z,2.60
2023-04-18T08:58:33.655Z,2.30
2023-04-18T09:01:57.287Z,2.72
2023-04-18T09:04:59.877Z,2.70
2023-04-18T09:08:21.970Z,2.72
2023-04-18T09:11:29.914Z,3.03
2023-04-18T09:14:32.651Z,2.45
2023-04-18T09:17:38.039Z,1.90
2023-04-18T09:20:42.536Z,2.50
2023-04-18T09:23:47.475Z,2.10
2023-04-18T09:26:51.291Z,2.20
2023-04-18T09:29:56.544Z,1.70
2023-04-18T09:33:01.429Z,2.58
2023-04-18T09:36:21.424Z,2.20
2023-04-18T09:39:28.408Z,2.10
2023-04-18T09:42:36.214Z,2.10
2023-04-18T09:45:39.137Z,2.20
2023-04-18T09:48:41.880Z,2.15
2023-04-18T09:51:44.800Z,2.12
2023-04-18T09:54:55.785Z,2.58
2023-04-18T09:58:00.728Z,1.87
2023-04-18T10:01:04.555Z,2.15
2023-04-18T10:04:07.974Z,2.28
2023-04-18T10:07:11.307Z,2.35
2023-04-18T10:10:14.588Z,2.60
2023-04-18T10:13:19.276Z,2.40
2023-04-18T10:16:22.079Z,2.20
2023-04-18T10:19:26.432Z,2.35
2023-04-18T10:22:29.164Z,2.37
2023-04-18T10:25:41.280Z,2.42
2023-04-18T10:28:58.010Z,2.25
2023-04-18T10:32:06.425Z,2.60
2023-04-18T10:35:10.864Z,2.40
2023-04-18T10:38:23.534Z,2.30
2023-04-18T10:41:26.187Z,2.62
2023-04-18T10:44:28.500Z,2.22
2023-04-18T10:47:31.252Z,1.55
2023-04-18T10:50:34.907Z,2.30
2023-04-18T10:53:37.375Z,2.25
2023-04-18T10:56:39.787Z,2.10
2023-04-18T10:59:44.430Z,2.00
2023-04-18T11:02:53.283Z,2.22
2023-04-18T11:06:01.804Z,1.80
2023-04-18T11:09:12.116Z,1.90
2023-04-18T11:12:14.669Z,1.92
2023-04-18T11:15:22.519Z,1.80
2023-04-18T11:18:25.483Z,2.20
2023-04-18T11:21:30.683Z,1.92
2023-04-18T11:24:34.232Z,1.83
2023-04-18T11:27:36.502Z,1.95
2023-04-18T11:30:40.919Z,1.70
2023-04-18T11:33:46.278Z,2.25
2023-04-18T11:36:52.581Z,1.83
2023-04-18T11:39:54.820Z,1.98
2023-04-18T11:43:01.361Z,1.60
2023-04-18T11:46:03.641Z,1.80
2023-04-18T11:49:06.172Z,2.10
2023-04-18T11:52:13.383Z,1.87
2023-04-18T11:55:18.652Z,2.00
2023-04-18T11:58:30.705Z,1.80
2023-04-18T12:01:35.238Z,1.70
2023-04-18T12:05:11.961Z,1.70
2023-04-18T12:08:19.685Z,1.70
2023-04-18T12:11:22.148Z,1.70
2023-04-18T12:14:24.290Z,1.80
2023-04-18T12:17:28.160Z,1.60
2023-04-18T12:20:40.306Z,1.87
2023-04-18T12:23:45.811Z,1.75
2023-04-18T12:26:48.701Z,1.70
2023-04-18T12:29:51.298Z,1.80
2023-04-18T12:32:56.958Z,1.92
2023-04-18T12:35:59.526Z,1.80
2023-04-18T12:39:02.222Z,1.70
2023-04-18T12:42:04.785Z,1.70
2023-04-18T12:45:11.592Z,1.90
2023-04-18T12:48:14.106Z,1.73
2023-04-18T12:51:16.321Z,1.55
2023-04-18T12:54:18.821Z,1.73
2023-04-18T12:57:20.998Z,1.70
2023-04-18T13:00:26.557Z,1.50
2023-04-18T13:03:28.945Z,1.62
2023-04-18T13:06:31.498Z,1.83
2023-04-18T13:09:34.039Z,1.50
2023-04-18T13:12:37.265Z,1.40
2023-04-18T13:15:39.556Z,1.60
2023-04-18T13:18:41.962Z,1.70
2023-04-18T13:21:44.245Z,1.80
2023-04-18T13:24:47.250Z,1.73
2023-04-18T13:27:52.188Z,1.67
2023-04-18T13:30:54.573Z,1.75
2023-04-18T13:33:56.743Z,1.60
2023-04-18T13:37:02.173Z,1.62
2023-04-18T13:40:06.379Z,1.77
2023-04-18T13:43:10.924Z,1.67
2023-04-18T13:46:13.096Z,1.85
2023-04-18T13:49:15.821Z,2.15
2023-04-18T13:52:18.180Z,2.03
2023-04-18T13:55:21.025Z,1.70
2023-04-18T13:58:23.177Z,2.08
2023-04-18T14:01:25.807Z,2.03
2023-04-18T14:04:28.532Z,1.40
2023-04-18T14:07:31.101Z,1.70
2023-04-18T14:10:33.593Z,1.52
2023-04-18T14:13:35.884Z,1.67
2023-04-18T14:16:38.376Z,1.30
2023-04-18T14:19:40.502Z,1.73
2023-04-18T14:22:42.915Z,1.87
2023-04-18T14:25:45.147Z,1.85
2023-04-18T14:28:47.859Z,2.00
2023-04-18T14:31:50.288Z,1.73
2023-04-18T14:34:52.772Z,1.85
2023-04-18T14:37:55.158Z,1.65
2023-04-18T14:40:58.582Z,1.77
2023-04-18T14:44:00.925Z,1.83
2023-04-18T14:47:03.445Z,1.50
2023-04-18T14:50:07.466Z,1.98
2023-04-18T14:53:11.157Z,1.60
2023-04-18T14:56:14.695Z,1.70
2023-04-18T14:59:17.305Z,1.67
2023-04-18T15:02:19.993Z,2.00
2023-04-18T15:05:23.807Z,1.80
2023-04-18T15:08:26.080Z,1.75
2023-04-18T15:11:28.485Z,1.60
2023-04-18T15:14:32.731Z,1.73
2023-04-18T15:17:35.906Z,1.50
2023-04-18T15:20:39.506Z,1.80
2023-04-18T15:23:41.975Z,2.05
2023-04-18T15:26:44.132Z,1.62
2023-04-18T15:29:46.941Z,1.80
2023-04-18T15:32:49.216Z,1.62
2023-04-18T15:35:51.691Z,2.00
2023-04-18T15:38:53.801Z,2.08
2023-04-18T15:41:56.523Z,2.08
2023-04-18T15:44:58.719Z,1.60
2023-04-18T15:48:01.175Z,1.65
2023-04-18T15:51:03.989Z,1.73
2023-04-18T15:54:06.554Z,1.85
2023-04-18T15:57:09.864Z,1.80
2023-04-18T16:00:16.284Z,1.98
2023-04-18T16:03:18.977Z,2.00
2023-04-18T16:06:24.159Z,2.12
2023-04-18T16:09:27.027Z,2.47
2023-04-18T16:12:29.323Z,2.17
2023-04-18T16:15:32.004Z,2.20
2023-04-18T16:18:34.265Z,2.15
2023-04-18T16:21:36.742Z,1.70
2023-04-18T16:24:40.453Z,2.03
2023-04-18T16:27:44.722Z,2.00
2023-04-18T16:30:47.285Z,2.30
2023-04-18T16:33:52.474Z,2.42
2023-04-18T16:36:55.642Z,2.15
2023-04-18T16:39:58.235Z,2.28
2023-04-18T16:43:01.960Z,2.20
2023-04-18T16:46:04.692Z,2.22
2023-04-18T16:49:06.976Z,2.00
2023-04-18T16:52:09.582Z,2.30
2023-04-18T16:55:11.741Z,2.40
2023-04-18T16:58:14.175Z,2.22
2023-04-18T17:01:16.426Z,2.00
2023-04-18T17:04:19.012Z,2.35
2023-04-18T17:07:21.221Z,2.70
2023-04-18T17:10:23.700Z,2.47
2023-04-18T17:13:27.241Z,3.10
2023-04-18T17:16:30.177Z,2.50
2023-04-18T17:19:32.386Z,2.47
2023-04-18T17:22:34.801Z,2.55
2023-04-18T17:25:37.011Z,2.65
2023-04-18T17:28:39.412Z,2.60
2023-04-18T17:31:41.996Z,2.28
2023-04-18T17:34:44.484Z,2.47
2023-04-18T17:37:47.883Z,2.25
2023-04-18T17:41:01.233Z,2.58
2023-04-18T17:44:04.914Z,2.83
2023-04-18T17:47:07.339Z,2.35
2023-04-18T17:50:10.104Z,2.47
2023-04-18T17:53:12.500Z,2.30
2023-04-18T17:56:14.645Z,2.40
2023-04-18T17:59:17.091Z,2.78
2023-04-18T18:02:20.128Z,2.70
2023-04-18T18:05:22.822Z,3.00
2023-04-18T18:08:25.724Z,2.55
2023-04-18T18:11:28.342Z,2.90
2023-04-18T18:14:30.654Z,3.00
2023-04-18T18:17:33.109Z,3.50
2023-04-18T18:20:35.320Z,2.60
2023-04-18T18:23:37.903Z,2.72
2023-04-18T18:26:40.153Z,3.22
2023-04-18T18:29:42.553Z,3.20
2023-04-18T18:32:44.746Z,3.20
2023-04-18T18:35:47.249Z,3.17
2023-04-18T18:38:49.422Z,4.18
2023-04-18T18:41:52.275Z,3.53
2023-04-18T18:44:54.469Z,3.78
2023-04-18T18:47:57.024Z,3.97
2023-04-18T18:50:59.301Z,3.80
2023-04-18T18:54:01.794Z,3.85
2023-04-18T18:57:04.088Z,3.40
2023-04-18T19:00:10.924Z,3.65
2023-04-18T19:03:13.356Z,3.22
2023-04-18T19:06:16.117Z,3.37
2023-04-18T19:09:18.761Z,3.60
2023-04-18T19:12:21.394Z,3.42
2023-04-18T19:15:24.430Z,3.30
2023-04-18T19:18:27.272Z,3.95
2023-04-18T19:21:29.867Z,3.20
2023-04-18T19:24:32.319Z,3.12
2023-04-18T19:27:34.448Z,2.78
2023-04-18T19:30:36.893Z,3.47
2023-04-18T19:33:39.013Z,3.50
2023-04-18T19:36:41.446Z,3.87
2023-04-18T19:39:43.608Z,3.45
2023-04-18T19:42:46.580Z,3.40
2023-04-18T19:45:50.551Z,3.53
2023-04-18T19:48:53.333Z,3.55
2023-04-18T19:51:55.486Z,4.05
2023-04-18T19:54:57.879Z,4.35
2023-04-18T19:58:00.169Z,3.35
2023-04-18T20:01:05.750Z,3.70
2023-04-18T20:04:08.427Z,3.78
2023-04-18T20:07:10.980Z,3.60
2023-04-18T20:10:13.505Z,3.20
2023-04-18T20:13:15.704Z,3.60
2023-04-18T20:16:18.243Z,3.70
2023-04-18T20:19:20.410Z,3.65
2023-04-18T20:22:25.800Z,3.85
2023-04-18T20:25:27.911Z,3.62
2023-04-18T20:28:31.491Z,3.28
2023-04-18T20:31:33.884Z,3.30
2023-04-18T20:34:36.348Z,3.10
2023-04-18T20:37:39.038Z,3.20
2023-04-18T20:40:45.016Z,3.45
2023-04-18T20:43:47.257Z,3.10
2023-04-18T20:46:49.794Z,3.28
2023-04-18T20:49:51.903Z,2.78
2023-04-18T20:52:55.178Z,2.83
2023-04-18T20:55:57.321Z,2.65
2023-04-18T20:58:59.859Z,2.90
2023-04-18T21:02:02.150Z,3.22
2023-04-18T21:05:05.103Z,2.47
2023-04-18T21:08:07.387Z,2.85
2023-04-18T21:11:09.779Z,2.87
2023-04-18T21:14:11.907Z,2.90
2023-04-18T21:17:17.277Z,2.83
2023-04-18T21:20:19.764Z,2.70
2023-04-18T21:23:25.233Z,3.08
2023-04-18T21:26:27.921Z,3.22
2023-04-18T21:29:30.320Z,3.10
2023-04-18T21:32:32.584Z,3.40
2023-04-18T21:35:35.031Z,3.10
2023-04-18T21:38:37.155Z,3.42
2023-04-18T21:41:39.626Z,3.65
2023-04-18T21:44:41.737Z,3.85
2023-04-18T21:47:44.256Z,3.35
2023-04-18T21:50:46.464Z,3.00
2023-04-18T21:53:48.925Z,3.37
2023-04-18T21:56:51.049Z,3.40
2023-04-18T21:59:55.490Z,3.10
2023-04-18T22:02:57.841Z,3.00
2023-04-18T22:06:01.472Z,3.20
2023-04-18T22:09:05.194Z,2.83
2023-04-18T22:12:08.596Z,3.20
2023-04-18T22:15:11.401Z,3.28
2023-04-18T22:18:14.562Z,3.40
2023-04-18T22:21:16.840Z,2.67
2023-04-18T22:24:19.667Z,3.28
2023-04-18T22:27:21.996Z,3.30
2023-04-18T22:30:24.591Z,3.17
2023-04-18T22:33:26.906Z,3.28
2023-04-18T22:36:29.381Z,3.00
2023-04-18T22:39:31.584Z,3.20
2023-04-18T22:42:34.893Z,2.87
2023-04-18T22:45:38.311Z,2.80
2023-04-18T22:48:40.713Z,3.20
2023-04-18T22:51:43.962Z,3.28
2023-04-18T22:54:46.455Z,3.40
2023-04-18T22:57:48.584Z,3.12
2023-04-18T23:00:51.030Z,3.20
2023-04-18T23:03:53.323Z,3.30
2023-04-18T23:06:56.249Z,3.37
2023-04-18T23:09:58.488Z,3.62
2023-04-18T23:13:01.252Z,3.28
2023-04-18T23:16:03.500Z,3.53
2023-04-18T23:19:05.982Z,3.22
2023-04-18T23:22:08.252Z,3.80
2023-04-18T23:25:10.724Z,3.37
2023-04-18T23:28:13.623Z,3.37
2023-04-18T23:31:16.173Z,3.08
2023-04-18T23:34:18.325Z,3.50
2023-04-18T23:37:20.895Z,3.58
2023-04-18T23:40:23.200Z,3.62
2023-04-18T23:43:25.645Z,3.40
2023-04-18T23:46:27.858Z,3.33
2023-04-18T23:49:30.325Z,3.12
2023-04-18T23:52:32.470Z,3.37
2023-04-18T23:55:34.908Z,3.40
2023-04-18T23:58:37.080Z,3.20
